createdAt,value
2022-10-06T00:02:19.327Z,9.22
2022-10-06T00:04:46.717Z,9.23
2022-10-06T00:07:14.718Z,9.25
2022-10-06T00:09:42.058Z,9.22
2022-10-06T00:12:09.763Z,9.17
2022-10-06T00:14:38.254Z,9.09
2022-10-06T00:17:05.416Z,9.02
2022-10-06T00:19:32.552Z,8.97
2022-10-06T00:21:59.689Z,8.94
2022-10-06T00:24:27.278Z,8.93
2022-10-06T00:26:54.446Z,8.89
2022-10-06T00:29:22.385Z,8.85
2022-10-06T00:31:50.855Z,8.84
2022-10-06T00:34:18.025Z,8.80
2022-10-06T00:36:45.362Z,8.76
2022-10-06T00:39:12.739Z,8.72
2022-10-06T00:41:39.941Z,8.68
2022-10-06T00:44:07.627Z,8.63
2022-10-06T00:46:39.079Z,8.58
2022-10-06T00:49:16.430Z,8.57
2022-10-06T00:51:47.470Z,8.58
2022-10-06T00:54:15.249Z,8.56
2022-10-06T00:56:42.421Z,8.55
2022-10-06T00:59:11.218Z,8.56
2022-10-06T01:01:41.487Z,8.57
2022-10-06T01:04:13.790Z,8.59
2022-10-06T01:06:46.449Z,8.57
2022-10-06T01:09:15.337Z,8.55
2022-10-06T01:11:43.030Z,8.54
2022-10-06T01:14:11.039Z,8.54
2022-10-06T01:16:41.184Z,8.51
2022-10-06T01:19:17.130Z,8.49
2022-10-06T01:21:47.628Z,8.45
2022-10-06T01:24:17.644Z,8.40
2022-10-06T01:26:48.488Z,8.39
2022-10-06T01:29:16.195Z,8.38
2022-10-06T01:31:43.948Z,8.35
2022-10-06T01:34:11.247Z,8.32
2022-10-06T01:36:40.313Z,8.27
2022-10-06T01:39:07.640Z,8.23
2022-10-06T01:41:36.228Z,8.19
2022-10-06T01:44:03.815Z,8.17
2022-10-06T01:46:30.990Z,8.17
2022-10-06T01:48:58.158Z,8.13
2022-10-06T01:51:25.734Z,8.06
2022-10-06T01:53:52.890Z,8.02
2022-10-06T01:56:22.089Z,8.00
2022-10-06T01:58:51.014Z,7.95
2022-10-06T02:01:18.717Z,7.97
2022-10-06T02:03:46.057Z,7.95
2022-10-06T02:06:13.203Z,7.95
2022-10-06T02:08:42.638Z,7.93
2022-10-06T02:11:11.296Z,7.90
2022-10-06T02:13:42.122Z,7.89
2022-10-06T02:16:14.007Z,7.88
2022-10-06T02:18:42.666Z,7.86
2022-10-06T02:21:14.778Z,7.82
2022-10-06T02:23:42.074Z,7.76
2022-10-06T02:26:09.402Z,7.76
2022-10-06T02:28:36.969Z,7.76
2022-10-06T02:31:08.603Z,7.75
2022-10-06T02:33:40.419Z,7.76
2022-10-06T02:36:10.057Z,7.76
2022-10-06T02:38:37.650Z,7.75
2022-10-06T02:41:08.567Z,7.73
2022-10-06T02:43:36.701Z,7.71
2022-10-06T02:46:06.589Z,7.69
2022-10-06T02:48:35.038Z,7.69
2022-10-06T02:51:09.558Z,7.68
2022-10-06T02:53:38.658Z,7.69
2022-10-06T02:56:08.391Z,7.63
2022-10-06T02:58:35.831Z,7.64
2022-10-06T03:01:09.741Z,7.62
2022-10-06T03:03:37.839Z,7.63
2022-10-06T03:06:21.841Z,7.61
2022-10-06T03:08:57.549Z,7.61
2022-10-06T03:11:26.904Z,7.60
2022-10-06T03:13:54.756Z,7.57
2022-10-06T03:16:24.028Z,7.55
2022-10-06T03:18:52.555Z,7.54
2022-10-06T03:21:24.010Z,7.53
2022-10-06T03:23:53.580Z,7.50
2022-10-06T03:26:22.825Z,7.50
2022-10-06T03:28:50.730Z,7.49
2022-10-06T03:31:18.023Z,7.48
2022-10-06T03:33:45.762Z,7.45
2022-10-06T03:36:14.188Z,7.46
2022-10-06T03:38:43.232Z,7.43
2022-10-06T03:41:12.575Z,7.41
2022-10-06T03:43:41.043Z,7.40
2022-10-06T03:46:10.644Z,7.40
2022-10-06T03:48:37.818Z,7.40
2022-10-06T03:51:07.582Z,7.37
2022-10-06T03:53:36.050Z,7.38
2022-10-06T03:56:08.492Z,7.38
2022-10-06T03:58:38.499Z,7.39
2022-10-06T04:01:07.860Z,7.40
2022-10-06T04:03:35.823Z,7.40
2022-10-06T04:06:05.226Z,7.39
2022-10-06T04:08:34.434Z,7.37
2022-10-06T04:11:07.581Z,7.37
2022-10-06T04:13:35.182Z,7.34
2022-10-06T04:16:10.541Z,7.33
2022-10-06T04:18:38.300Z,7.29
2022-10-06T04:21:05.762Z,7.26
2022-10-06T04:23:34.172Z,7.24
2022-10-06T04:26:03.179Z,7.24
2022-10-06T04:28:32.523Z,7.25
2022-10-06T04:31:01.498Z,7.25
2022-10-06T04:33:29.811Z,7.25
2022-10-06T04:35:58.301Z,7.25
2022-10-06T04:38:26.367Z,7.26
2022-10-06T04:40:54.131Z,7.29
2022-10-06T04:43:21.556Z,7.33
2022-10-06T04:45:56.671Z,7.36
2022-10-06T04:48:24.036Z,7.42
2022-10-06T04:50:55.514Z,7.47
2022-10-06T04:53:22.798Z,7.54
2022-10-06T04:56:01.941Z,7.72
2022-10-06T04:58:32.674Z,8.01
2022-10-06T05:01:02.462Z,8.32
2022-10-06T05:03:30.510Z,8.64
2022-10-06T05:06:06.077Z,8.95
2022-10-06T05:08:33.725Z,9.26
2022-10-06T05:11:01.529Z,9.59
2022-10-06T05:13:29.298Z,9.90
2022-10-06T05:15:57.138Z,10.20
2022-10-06T05:18:29.910Z,10.48
2022-10-06T05:21:01.077Z,10.76
2022-10-06T05:23:34.082Z,11.04
2022-10-06T05:26:01.699Z,11.27
2022-10-06T05:28:32.036Z,11.53
2022-10-06T05:31:01.627Z,11.79
2022-10-06T05:33:33.588Z,11.99
2022-10-06T05:36:03.274Z,12.15
2022-10-06T05:38:31.657Z,12.35
2022-10-06T05:41:04.401Z,12.60
2022-10-06T05:43:32.189Z,12.80
2022-10-06T05:46:01.304Z,13.03
2022-10-06T05:48:30.100Z,13.23
2022-10-06T05:51:04.036Z,13.47
2022-10-06T05:53:33.828Z,13.72
2022-10-06T05:56:06.403Z,13.97
2022-10-06T05:58:35.640Z,14.15
2022-10-06T06:01:08.030Z,14.28
2022-10-06T06:03:35.805Z,14.56
2022-10-06T06:06:12.144Z,14.84
2022-10-06T06:08:39.442Z,14.98
2022-10-06T06:11:07.807Z,15.09
2022-10-06T06:13:35.186Z,15.32
2022-10-06T06:16:12.489Z,15.55
2022-10-06T06:18:40.070Z,15.81
2022-10-06T06:21:10.769Z,16.01
2022-10-06T06:23:40.325Z,16.22
2022-10-06T06:26:08.992Z,16.41
2022-10-06T06:28:41.408Z,16.58
2022-10-06T06:31:13.275Z,16.75
2022-10-06T06:33:43.330Z,16.82
2022-10-06T06:36:17.761Z,17.06
2022-10-06T06:38:48.436Z,17.29
2022-10-06T06:41:17.141Z,17.49
2022-10-06T06:43:44.616Z,17.58
2022-10-06T06:46:20.424Z,17.74
2022-10-06T06:49:04.393Z,17.88
2022-10-06T06:51:37.309Z,17.81
2022-10-06T06:54:05.116Z,17.86
2022-10-06T06:56:36.044Z,18.10
2022-10-06T06:59:10.533Z,18.39
2022-10-06T07:01:39.552Z,18.48
2022-10-06T07:04:06.738Z,18.54
2022-10-06T07:06:40.073Z,18.68
2022-10-06T07:09:10.109Z,18.95
2022-10-06T07:11:39.549Z,19.20
2022-10-06T07:14:14.591Z,19.42
2022-10-06T07:17:05.574Z,19.70
2022-10-06T07:19:47.629Z,19.96
2022-10-06T07:22:37.418Z,20.18
2022-10-06T07:25:13.278Z,20.47
2022-10-06T07:27:43.435Z,20.78
2022-10-06T07:30:18.952Z,21.03
2022-10-06T07:32:49.868Z,21.21
2022-10-06T07:35:20.430Z,21.39
2022-10-06T07:37:51.535Z,21.63
2022-10-06T07:40:19.117Z,21.79
2022-10-06T07:42:51.775Z,21.84
2022-10-06T07:45:45.606Z,21.92
2022-10-06T07:48:18.194Z,22.02
2022-10-06T07:50:49.253Z,22.15
2022-10-06T07:53:21.399Z,22.34
2022-10-06T07:55:53.896Z,22.53
2022-10-06T07:58:24.327Z,22.82
2022-10-06T08:00:54.845Z,22.71
2022-10-06T08:03:22.373Z,22.76
2022-10-06T08:05:56.806Z,23.09
2022-10-06T08:08:25.589Z,23.45
2022-10-06T08:10:53.953Z,23.55
2022-10-06T08:13:21.766Z,23.56
2022-10-06T08:15:52.051Z,23.76
2022-10-06T08:18:40.999Z,23.97
2022-10-06T08:21:11.536Z,24.04
2022-10-06T08:23:40.514Z,24.22
2022-10-06T08:26:07.856Z,24.37
2022-10-06T08:28:36.453Z,24.43
2022-10-06T08:31:05.561Z,24.59
2022-10-06T08:33:35.110Z,24.66
2022-10-06T08:36:04.299Z,24.83
2022-10-06T08:38:31.701Z,25.06
2022-10-06T08:41:00.416Z,25.26
2022-10-06T08:43:30.479Z,25.47
2022-10-06T08:46:01.926Z,25.54
2022-10-06T08:48:38.651Z,25.70
2022-10-06T08:51:19.674Z,25.99
2022-10-06T08:53:58.707Z,26.21
2022-10-06T08:56:33.892Z,26.30
2022-10-06T08:59:06.157Z,26.43
2022-10-06T09:01:40.232Z,26.52
2022-10-06T09:04:08.083Z,26.65
2022-10-06T09:06:49.045Z,26.87
2022-10-06T09:09:31.193Z,27.07
2022-10-06T09:12:07.579Z,27.20
2022-10-06T09:14:40.162Z,27.31
2022-10-06T09:17:11.470Z,27.35
2022-10-06T09:19:44.951Z,27.33
2022-10-06T09:22:18.739Z,27.18
2022-10-06T09:24:50.253Z,27.00
2022-10-06T09:27:21.758Z,27.14
2022-10-06T09:29:50.485Z,27.41
2022-10-06T09:32:19.421Z,27.65
2022-10-06T09:34:51.622Z,27.74
2022-10-06T09:37:19.169Z,27.70
2022-10-06T09:39:49.503Z,27.72
2022-10-06T09:42:21.927Z,27.86
2022-10-06T09:45:02.758Z,28.05
2022-10-06T09:47:41.913Z,28.21
2022-10-06T09:50:23.871Z,28.18
2022-10-06T09:53:09.295Z,27.85
2022-10-06T09:55:45.580Z,27.68
2022-10-06T09:58:21.810Z,27.90
2022-10-06T10:00:53.794Z,28.03
2022-10-06T10:03:22.312Z,28.14
2022-10-06T10:05:51.714Z,28.28
2022-10-06T10:08:22.400Z,28.34
2022-10-06T10:10:50.382Z,28.33
2022-10-06T10:13:21.942Z,28.33
2022-10-06T10:15:54.790Z,28.16
2022-10-06T10:18:26.788Z,28.11
2022-10-06T10:20:57.755Z,28.15
2022-10-06T10:23:31.605Z,28.12
2022-10-06T10:26:18.078Z,28.27
2022-10-06T10:29:09.745Z,28.17
2022-10-06T10:31:49.943Z,28.27
2022-10-06T10:34:29.974Z,28.22
2022-10-06T10:37:03.465Z,28.40
2022-10-06T10:39:38.536Z,28.52
2022-10-06T10:42:13.926Z,28.58
2022-10-06T10:44:50.339Z,28.59
2022-10-06T10:47:22.958Z,28.53
2022-10-06T10:49:58.682Z,28.53
2022-10-06T10:52:30.487Z,28.59
2022-10-06T10:55:05.259Z,28.54
2022-10-06T10:57:35.845Z,28.23
2022-10-06T11:00:07.578Z,28.28
2022-10-06T11:02:35.863Z,28.36
2022-10-06T11:05:06.208Z,28.45
2022-10-06T11:07:40.109Z,28.33
2022-10-06T11:10:13.520Z,27.96
2022-10-06T11:13:02.130Z,27.78
2022-10-06T11:15:48.454Z,28.02
2022-10-06T11:18:26.166Z,28.29
2022-10-06T11:20:59.143Z,28.46
2022-10-06T11:23:44.555Z,28.57
2022-10-06T11:26:28.883Z,28.72
2022-10-06T11:29:01.822Z,28.58
2022-10-06T11:31:35.805Z,28.22
2022-10-06T11:34:04.825Z,28.06
2022-10-06T11:36:39.969Z,28.05
2022-10-06T11:39:20.243Z,28.07
2022-10-06T11:41:52.025Z,28.10
2022-10-06T11:44:26.480Z,27.90
2022-10-06T11:46:56.504Z,27.90
2022-10-06T11:49:39.162Z,28.07
2022-10-06T11:52:36.143Z,28.29
2022-10-06T11:55:18.282Z,28.45
2022-10-06T11:58:42.049Z,28.36
2022-10-06T12:00:58.102Z,27.98
2022-10-06T12:03:46.321Z,27.67
2022-10-06T12:06:50.784Z,27.41
2022-10-06T12:09:40.992Z,27.02
2022-10-06T12:13:06.094Z,27.04
2022-10-06T12:19:02.922Z,27.28
2022-10-06T12:21:45.668Z,27.55
2022-10-06T12:24:30.777Z,27.72
2022-10-06T12:27:21.964Z,27.97
2022-10-06T12:29:59.338Z,28.22
2022-10-06T12:32:40.592Z,28.16
2022-10-06T12:35:20.647Z,28.21
2022-10-06T12:37:54.470Z,28.27
2022-10-06T12:40:46.587Z,28.26
2022-10-06T12:43:48.241Z,28.34
2022-10-06T12:46:24.049Z,28.47
2022-10-06T12:49:03.607Z,28.57
2022-10-06T12:51:35.100Z,28.62
2022-10-06T12:54:09.810Z,28.57
2022-10-06T12:56:37.665Z,28.53
2022-10-06T12:59:19.942Z,28.52
2022-10-06T13:01:49.347Z,28.41
2022-10-06T13:04:43.095Z,27.85
2022-10-06T13:07:17.595Z,27.39
2022-10-06T13:09:46.160Z,27.11
2022-10-06T13:12:25.999Z,27.12
2022-10-06T13:15:19.617Z,27.24
2022-10-06T13:17:50.334Z,27.41
2022-10-06T13:20:24.506Z,27.48
2022-10-06T13:23:07.541Z,27.48
2022-10-06T13:25:44.516Z,27.59
2022-10-06T13:28:29.338Z,27.70
2022-10-06T13:30:57.713Z,27.57
2022-10-06T13:33:28.633Z,27.47
2022-10-06T13:35:57.613Z,27.38
2022-10-06T13:38:26.262Z,27.33
2022-10-06T13:41:07.668Z,27.37
2022-10-06T13:43:40.505Z,27.22
2022-10-06T13:46:09.809Z,27.01
2022-10-06T13:48:42.318Z,26.84
2022-10-06T13:51:16.511Z,26.77
2022-10-06T13:53:47.869Z,26.73
2022-10-06T13:56:37.761Z,26.78
2022-10-06T13:59:28.387Z,26.67
2022-10-06T14:01:55.827Z,26.61
2022-10-06T14:04:23.291Z,26.52
2022-10-06T14:06:53.206Z,26.44
2022-10-06T14:09:24.902Z,26.42
2022-10-06T14:11:54.565Z,26.43
2022-10-06T14:14:22.078Z,26.31
2022-10-06T14:16:51.796Z,26.16
2022-10-06T14:19:34.514Z,26.09
2022-10-06T14:22:02.807Z,26.06
2022-10-06T14:24:34.354Z,26.05
2022-10-06T14:27:02.784Z,26.03
2022-10-06T14:29:31.667Z,26.02
2022-10-06T14:32:08.090Z,26.00
2022-10-06T14:34:35.230Z,25.86
2022-10-06T14:37:02.609Z,25.75
2022-10-06T14:39:31.387Z,25.65
2022-10-06T14:41:58.821Z,25.55
2022-10-06T14:46:54.243Z,25.35
2022-10-06T14:49:21.972Z,25.24
2022-10-06T14:51:49.159Z,25.12
2022-10-06T14:54:16.386Z,25.01
2022-10-06T14:56:44.895Z,24.90
2022-10-06T14:59:17.111Z,24.80
2022-10-06T15:01:44.684Z,24.66
2022-10-06T15:04:13.608Z,24.55
2022-10-06T15:07:00.449Z,24.43
2022-10-06T15:09:30.612Z,24.30
2022-10-06T15:12:00.034Z,24.17
2022-10-06T15:14:28.552Z,24.02
2022-10-06T15:16:59.173Z,23.90
2022-10-06T15:19:26.544Z,23.76
2022-10-06T15:21:53.769Z,23.60
2022-10-06T15:24:21.044Z,23.47
2022-10-06T15:27:06.948Z,23.36
2022-10-06T15:29:35.509Z,23.23
2022-10-06T15:32:06.439Z,23.11
2022-10-06T15:34:36.830Z,22.98
2022-10-06T15:37:04.760Z,22.85
2022-10-06T15:39:35.487Z,22.74
2022-10-06T15:42:03.264Z,22.60
2022-10-06T15:44:33.504Z,22.48
2022-10-06T15:47:04.802Z,22.35
2022-10-06T15:49:33.162Z,22.25
2022-10-06T15:52:03.286Z,22.11
2022-10-06T15:54:33.747Z,21.97
2022-10-06T15:57:02.291Z,21.84
2022-10-06T15:59:31.744Z,21.72
2022-10-06T16:02:03.267Z,21.60
2022-10-06T16:04:39.908Z,21.47
2022-10-06T16:07:08.115Z,21.36
2022-10-06T16:09:42.081Z,21.22
2022-10-06T16:12:13.858Z,21.10
2022-10-06T16:14:41.086Z,20.98
2022-10-06T16:17:09.598Z,20.87
2022-10-06T16:19:40.036Z,20.77
2022-10-06T16:22:10.253Z,20.67
2022-10-06T16:24:37.432Z,20.58
2022-10-06T16:27:04.625Z,20.49
2022-10-06T16:29:32.582Z,20.42
2022-10-06T16:31:59.760Z,20.32
2022-10-06T16:34:27.036Z,20.21
2022-10-06T16:36:55.669Z,20.08
2022-10-06T16:39:23.361Z,19.97
2022-10-06T16:41:51.145Z,19.90
2022-10-06T16:44:18.510Z,19.81
2022-10-06T16:46:45.938Z,19.75
2022-10-06T16:49:13.292Z,19.66
2022-10-06T16:51:42.021Z,19.55
2022-10-06T16:54:12.482Z,19.48
2022-10-06T16:56:41.743Z,19.35
2022-10-06T16:59:12.815Z,19.22
2022-10-06T17:01:40.264Z,19.11
2022-10-06T17:04:09.529Z,18.98
2022-10-06T17:06:39.309Z,18.89
2022-10-06T17:09:11.877Z,18.79
2022-10-06T17:11:41.893Z,18.67
2022-10-06T17:14:09.345Z,18.56
2022-10-06T17:16:38.804Z,18.46
2022-10-06T17:19:06.683Z,18.37
2022-10-06T17:21:54.080Z,18.28
2022-10-06T17:24:23.060Z,18.24
2022-10-06T17:26:51.564Z,18.19
2022-10-06T17:29:21.365Z,18.08
2022-10-06T17:31:50.978Z,18.01
2022-10-06T17:34:21.879Z,17.98
2022-10-06T17:36:51.916Z,17.98
2022-10-06T17:39:21.466Z,17.93
2022-10-06T17:41:49.863Z,17.87
2022-10-06T17:44:23.401Z,17.82
2022-10-06T17:46:52.311Z,17.78
2022-10-06T17:49:20.838Z,17.75
2022-10-06T17:51:49.152Z,17.70
2022-10-06T17:54:19.158Z,17.65
2022-10-06T17:56:47.709Z,17.60
2022-10-06T17:59:17.511Z,17.55
2022-10-06T18:01:46.153Z,17.50
2022-10-06T18:04:17.863Z,17.43
2022-10-06T18:06:46.476Z,17.34
2022-10-06T18:09:14.713Z,17.25
2022-10-06T18:11:44.126Z,17.16
2022-10-06T18:14:12.799Z,17.06
2022-10-06T18:16:41.980Z,16.98
2022-10-06T18:19:13.269Z,16.92
2022-10-06T18:21:41.994Z,16.86
2022-10-06T18:24:13.036Z,16.81
2022-10-06T18:26:41.901Z,16.75
2022-10-06T18:29:10.466Z,16.72
2022-10-06T18:31:38.983Z,16.69
2022-10-06T18:36:55.278Z,16.57
2022-10-06T18:39:22.772Z,16.45
2022-10-06T18:41:51.173Z,16.30
2022-10-06T18:44:41.293Z,16.19
2022-10-06T18:47:26.874Z,16.05
2022-10-06T18:49:53.977Z,15.97
2022-10-06T18:52:22.726Z,15.88
2022-10-06T18:54:50.266Z,15.77
2022-10-06T18:57:17.430Z,15.71
2022-10-06T18:59:44.747Z,15.69
2022-10-06T19:02:12.000Z,15.66
2022-10-06T19:04:42.709Z,15.63
2022-10-06T19:07:09.805Z,15.53
2022-10-06T19:09:40.575Z,15.47
2022-10-06T19:12:12.499Z,15.45
2022-10-06T19:14:46.974Z,15.40
2022-10-06T19:17:15.242Z,15.35
2022-10-06T19:19:45.183Z,15.31
2022-10-06T19:22:14.306Z,15.28
2022-10-06T19:24:44.431Z,15.24
2022-10-06T19:27:13.306Z,15.18
2022-10-06T19:29:45.433Z,15.12
2022-10-06T19:32:16.168Z,15.04
2022-10-06T19:34:44.455Z,14.94
2022-10-06T19:37:11.643Z,14.91
2022-10-06T19:39:42.791Z,14.88
2022-10-06T19:42:30.762Z,14.80
2022-10-06T19:44:57.953Z,14.73
2022-10-06T19:47:25.281Z,14.67
2022-10-06T19:49:57.876Z,14.60
2022-10-06T19:52:26.266Z,14.53
2022-10-06T19:54:53.336Z,14.45
2022-10-06T19:57:21.898Z,14.38
2022-10-06T19:59:50.982Z,14.35
2022-10-06T20:02:18.123Z,14.25
2022-10-06T20:04:45.471Z,14.19
2022-10-06T20:07:12.765Z,14.16
2022-10-06T20:09:39.957Z,14.10
2022-10-06T20:12:07.105Z,14.04
2022-10-06T20:14:36.393Z,13.96
2022-10-06T20:17:03.706Z,13.94
2022-10-06T20:19:31.077Z,13.90
2022-10-06T20:21:58.982Z,13.88
2022-10-06T20:24:26.124Z,13.89
2022-10-06T20:26:53.998Z,13.87
2022-10-06T20:29:23.011Z,13.81
2022-10-06T20:31:53.351Z,13.77
2022-10-06T20:34:23.557Z,13.73
2022-10-06T20:36:55.718Z,13.69
2022-10-06T20:39:41.960Z,13.64
2022-10-06T20:42:14.946Z,13.57
2022-10-06T20:44:43.296Z,13.53
2022-10-06T20:47:12.325Z,13.49
2022-10-06T20:49:40.673Z,13.43
2022-10-06T20:52:09.820Z,13.39
2022-10-06T20:54:37.501Z,13.34
2022-10-06T20:57:06.315Z,13.26
2022-10-06T20:59:35.495Z,13.19
2022-10-06T21:02:03.776Z,13.15
2022-10-06T21:04:32.571Z,13.10
2022-10-06T21:06:59.669Z,13.02
2022-10-06T21:09:28.616Z,12.94
2022-10-06T21:11:57.358Z,12.86
2022-10-06T21:14:25.026Z,12.79
2022-10-06T21:16:52.519Z,12.72
2022-10-06T21:19:19.661Z,12.67
2022-10-06T21:21:50.733Z,12.64
2022-10-06T21:24:18.379Z,12.59
2022-10-06T21:26:45.785Z,12.56
2022-10-06T21:29:14.138Z,12.54
2022-10-06T21:31:42.006Z,12.50
2022-10-06T21:34:10.378Z,12.43
2022-10-06T21:36:38.196Z,12.38
2022-10-06T21:39:07.265Z,12.32
2022-10-06T21:41:39.041Z,12.22
2022-10-06T21:44:08.143Z,12.14
2022-10-06T21:46:37.108Z,12.07
2022-10-06T21:49:06.605Z,12.03
2022-10-06T21:51:34.108Z,11.99
2022-10-06T21:54:01.398Z,11.96
2022-10-06T21:56:32.590Z,11.91
2022-10-06T21:59:00.416Z,11.88
2022-10-06T22:01:29.208Z,11.88
2022-10-06T22:03:57.408Z,11.84
2022-10-06T22:06:24.639Z,11.80
2022-10-06T22:08:52.116Z,11.76
2022-10-06T22:11:21.328Z,11.69
2022-10-06T22:13:51.756Z,11.62
2022-10-06T22:16:21.088Z,11.58
2022-10-06T22:18:48.769Z,11.54
2022-10-06T22:21:17.884Z,11.47
2022-10-06T22:23:47.179Z,11.42
2022-10-06T22:26:15.736Z,11.39
2022-10-06T22:28:45.493Z,11.38
2022-10-06T22:31:15.417Z,11.37
2022-10-06T22:33:44.544Z,11.33
2022-10-06T22:36:13.368Z,11.31
2022-10-06T22:38:40.704Z,11.32
2022-10-06T22:41:10.328Z,11.32
2022-10-06T22:43:38.145Z,11.26
2022-10-06T22:46:07.020Z,11.23
2022-10-06T22:48:35.956Z,11.22
2022-10-06T22:51:03.707Z,11.21
2022-10-06T22:53:31.373Z,11.18
2022-10-06T22:55:59.455Z,11.16
2022-10-06T22:58:27.503Z,11.09
2022-10-06T23:00:55.354Z,11.05
2022-10-06T23:03:22.909Z,11.02
2022-10-06T23:06:00.715Z,11.01
2022-10-06T23:08:31.392Z,10.98
2022-10-06T23:11:06.690Z,10.98
2022-10-06T23:13:34.300Z,10.94
2022-10-06T23:16:07.223Z,10.85
2022-10-06T23:18:36.082Z,10.81
2022-10-06T23:21:05.819Z,10.79
2022-10-06T23:23:33.490Z,10.77
2022-10-06T23:26:05.984Z,10.75
2022-10-06T23:28:33.158Z,10.69
2022-10-06T23:31:00.239Z,10.64
2022-10-06T23:33:29.500Z,10.61
2022-10-06T23:35:58.337Z,10.57
2022-10-06T23:38:27.380Z,10.56
2022-10-06T23:40:54.924Z,10.54
2022-10-06T23:43:22.941Z,10.55
2022-10-06T23:45:50.455Z,10.55
2022-10-06T23:48:17.749Z,10.55
2022-10-06T23:50:55.321Z,10.55
2022-10-06T23:53:22.440Z,10.55
2022-10-06T23:55:51.252Z,10.52
2022-10-06T23:58:18.757Z,10.48
